Coral, Florida
Current Conditions -  °F | °C
As of 2:53 AM on Sunday 26 Oct 2014 (Local Time) from KMIA Reporting Station
Few Clouds Few Clouds  
Wind Chill: 72°   Ceiling: Unl
Heat Index: 72°   Visibility: 10mi
Dew Point: 64°   Wind: 7mph
Humidity: 76%   Direction: 340°NNW
Pressure: 29.91"   Gusts: NA
Location:  25.7527°N, 80.2344°W
Report Text: KMIA 260653Z 34006KT 10SM FEW040 FEW060 22/18 A2991 RMK AO2 SLP129 T02220178
Loading
Personal Weather Stations






























Interactive Weather Map
Tropical Storm Tracking
New forecast layout! Learn more

10-Day Weather Forecast

Advertisements
Track Severe Weather on mobile